EST,Max TemperatureF,Mean TemperatureF,Min TemperatureF,Max Dew PointF,MeanDew PointF,Min DewpointF,Max Humidity, Mean Humidity, Min Humidity, Max Sea Level PressureIn, Mean Sea Level PressureIn, Min Sea Level PressureIn, Max VisibilityMiles, Mean VisibilityMiles, Min VisibilityMiles, Max Wind SpeedMPH, Mean Wind SpeedMPH, Max Gust SpeedMPH,PrecipitationIn, CloudCover, Events, WindDirDegrees
2013-11-1,68,60,53,66,61,54,100,92,83,29.80,29.69,29.63,10,9,0,23,11,33,0.00,3,Fog-Rain,153
2013-11-2,69,60,50,55,49,39,100,80,40,29.88,29.73,29.66,10,9,0,17,3,25,0.00,4,Fog,275
2013-11-3,55,48,41,45,35,25,93,64,33,30.47,30.12,29.88,10,10,10,15,5,26,0.00,1,,289
2013-11-4,46,40,33,32,25,19,81,61,34,30.65,30.60,30.49,10,10,10,7,3,,0.00,2,,343
2013-11-5,60,48,37,50,40,28,88,75,59,30.64,30.57,30.50,10,10,10,6,2,,0.00,5,,58
2013-11-6,62,53,44,55,52,45,100,86,68,30.50,30.32,30.10,10,10,10,17,4,21,0.00,4,,143
2013-11-7,60,53,44,57,47,27,100,81,49,30.09,29.99,29.88,10,10,5,21,6,30,0.00,4,Rain,242
2013-11-8,51,42,33,32,28,25,87,58,37,30.33,30.18,30.09,10,10,10,20,8,30,0.00,1,,272
2013-11-9,53,42,30,36,30,27,93,68,41,30.36,30.25,30.05,10,10,10,13,2,20,0.00,1,,201
2013-11-10,62,53,44,36,31,28,66,51,31,30.22,30.05,29.96,10,10,10,26,7,32,0.00,1,,241
2013-11-11,55,46,37,43,32,28,75,58,38,30.32,30.20,30.03,10,10,10,13,7,,0.00,1,,221
2013-11-12,53,42,30,39,27,14,71,54,38,30.41,30.16,30.00,10,10,10,21,5,29,0.00,4,,287
2013-11-13,44,35,26,23,20,18,74,57,36,30.47,30.42,30.40,10,10,10,16,5,24,0.00,0,,267
2013-11-14,53,42,30,37,26,18,100,64,26,30.40,30.33,30.25,10,10,10,10,4,,0.00,0,,206
2013-11-15,53,42,30,41,34,28,100,86,44,30.30,30.25,30.22,10,10,7,8,1,,0.00,2,Rain,149
2013-11-16,51,46,42,50,46,41,100,97,87,30.35,30.29,30.27,7,4,2,5,1,,0.09,7,Rain,82
2013-11-17,59,54,50,59,53,50,100,99,88,30.27,30.10,29.78,10,5,0,20,2,24,0.02,8,Fog-Rain,134
2013-11-18,69,60,51,59,41,25,100,59,22,29.93,29.79,29.71,10,9,5,21,11,31,0.02,3,Rain,230
2013-11-19,51,43,35,30,27,25,70,51,41,30.39,30.14,29.93,10,10,10,24,13,32,0.00,3,,298
2013-11-20,44,37,30,30,26,19,93,73,37,30.60,30.49,30.05,10,10,10,7,2,,0.00,1,,357
2013-11-21,48,39,30,43,33,27,87,79,65,30.60,30.53,30.41,10,10,10,4,0,,0.00,4,,305
2013-11-22,57,52,46,52,47,41,100,88,81,30.41,30.20,30.01,10,10,10,9,0,,0.00,6,,239
2013-11-23,55,44,32,52,31,10,88,59,36,30.19,30.10,30.03,10,10,10,26,15,34,0.00,2,,289
2013-11-24,33,30,26,14,9,0,51,43,25,30.52,30.32,30.19,10,10,10,29,18,43,0.00,3,,283
2013-11-25,35,30,24,18,12,10,59,50,35,30.59,30.49,30.38,10,10,10,12,7,17,0.00,1,,224
2013-11-26,50,42,33,50,27,16,100,70,44,30.38,30.18,29.58,10,7,2,12,5,17,0.43,5,Rain-Snow,128
2013-11-27,57,44,32,57,39,19,100,89,60,30.00,29.63,29.49,10,7,2,23,11,31,0.30,7,Rain,270
2013-11-28,39,34,28,27,18,16,80,56,39,30.51,30.27,30.01,10,10,10,22,15,32,0.00,2,,267
2013-11-29,42,33,24,28,24,19,93,73,39,30.75,30.59,30.49,10,10,10,12,1,,0.00,1,,334
2013-11-30,37,30,24,32,22,18,87,71,55,30.75,30.67,30.41,10,10,10,6,0,,0.00,4,,50